Mahtomedi, Minnesota
Current Conditions -  °F | °C
As of 1:31 AM on Thursday 23 Oct 2014 (Local Time) from K21D Reporting Station
Scattered Clouds Scattered Clouds  
Wind Chill: 54°   Ceiling: Unl
Heat Index: 54°   Visibility: 10mi
Dew Point: 43°   Wind: 9mph
Humidity: 67%   Direction: 180°S
Pressure: 30.03"   Gusts: NA
Location:  45.051°N, 92.9612°W
Report Text: K21D 230631Z AUTO 18008KT 10SM SCT080 SCT110 12/06 A3003 RMK AO2
Loading
Personal Weather Stations






























Interactive Weather Map
Tropical Storm Tracking
New forecast layout! Learn more

10-Day Weather Forecast

Advertisements
Track Severe Weather on mobile